sensor_id;sensor_type;location;lat;lon;timestamp;P1;durP1;ratioP1;P2;durP2;ratioP2
14738;SDS011;7461;52.440;13.540;2024-02-26T00:02:24;19.30;;;17.67;;
14738;SDS011;7461;52.440;13.540;2024-02-26T00:04:53;18.30;;;16.92;;
14738;SDS011;7461;52.440;13.540;2024-02-26T00:07:20;18.23;;;16.83;;
14738;SDS011;7461;52.440;13.540;2024-02-26T00:09:47;18.15;;;16.65;;
14738;SDS011;7461;52.440;13.540;2024-02-26T00:12:15;16.00;;;14.73;;
14738;SDS011;7461;52.440;13.540;2024-02-26T00:14:42;18.80;;;16.63;;
14738;SDS011;7461;52.440;13.540;2024-02-26T00:17:11;17.33;;;16.02;;
14738;SDS011;7461;52.440;13.540;2024-02-26T00:19:38;17.42;;;15.95;;
14738;SDS011;7461;52.440;13.540;2024-02-26T00:22:07;16.73;;;15.38;;
14738;SDS011;7461;52.440;13.540;2024-02-26T00:24:34;17.42;;;16.13;;
14738;SDS011;7461;52.440;13.540;2024-02-26T00:27:01;18.25;;;16.73;;
14738;SDS011;7461;52.440;13.540;2024-02-26T00:29:29;18.90;;;17.17;;
14738;SDS011;7461;52.440;13.540;2024-02-26T00:31:57;18.05;;;16.48;;
14738;SDS011;7461;52.440;13.540;2024-02-26T00:34:24;15.00;;;13.88;;
14738;SDS011;7461;52.440;13.540;2024-02-26T00:36:52;17.95;;;15.80;;
14738;SDS011;7461;52.440;13.540;2024-02-26T00:39:20;16.73;;;15.32;;
14738;SDS011;7461;52.440;13.540;2024-02-26T00:41:48;18.30;;;16.90;;
14738;SDS011;7461;52.440;13.540;2024-02-26T00:44:16;16.38;;;15.23;;
14738;SDS011;7461;52.440;13.540;2024-02-26T00:46:44;16.50;;;15.15;;
14738;SDS011;7461;52.440;13.540;2024-02-26T00:49:11;15.07;;;13.98;;
14738;SDS011;7461;52.440;13.540;2024-02-26T00:51:38;16.30;;;15.05;;
14738;SDS011;7461;52.440;13.540;2024-02-26T00:54:05;17.55;;;16.08;;
14738;SDS011;7461;52.440;13.540;2024-02-26T00:56:34;17.00;;;15.73;;
14738;SDS011;7461;52.440;13.540;2024-02-26T00:59:01;16.13;;;15.13;;
14738;SDS011;7461;52.440;13.540;2024-02-26T01:01:28;15.40;;;14.35;;
14738;SDS011;7461;52.440;13.540;2024-02-26T01:03:56;16.48;;;15.10;;
14738;SDS011;7461;52.440;13.540;2024-02-26T01:06:23;15.98;;;14.57;;
14738;SDS011;7461;52.440;13.540;2024-02-26T01:08:50;14.65;;;13.52;;
14738;SDS011;7461;52.440;13.540;2024-02-26T01:11:17;17.15;;;15.88;;
14738;SDS011;7461;52.440;13.540;2024-02-26T01:13:46;14.05;;;12.85;;
14738;SDS011;7461;52.440;13.540;2024-02-26T01:16:13;14.80;;;13.30;;
14738;SDS011;7461;52.440;13.540;2024-02-26T01:18:40;15.23;;;13.98;;
14738;SDS011;7461;52.440;13.540;2024-02-26T01:21:07;16.95;;;15.45;;
14738;SDS011;7461;52.440;13.540;2024-02-26T01:23:35;13.52;;;12.40;;
14738;SDS011;7461;52.440;13.540;2024-02-26T01:26:02;13.73;;;12.57;;
14738;SDS011;7461;52.440;13.540;2024-02-26T01:28:30;14.48;;;13.48;;
14738;SDS011;7461;52.440;13.540;2024-02-26T01:30:58;14.13;;;13.13;;
14738;SDS011;7461;52.440;13.540;2024-02-26T01:33:26;12.80;;;11.80;;
14738;SDS011;7461;52.440;13.540;2024-02-26T01:35:53;14.75;;;13.65;;
14738;SDS011;7461;52.440;13.540;2024-02-26T01:38:20;13.40;;;12.45;;
14738;SDS011;7461;52.440;13.540;2024-02-26T01:40:47;14.10;;;13.00;;
14738;SDS011;7461;52.440;13.540;2024-02-26T01:43:14;14.05;;;12.85;;
14738;SDS011;7461;52.440;13.540;2024-02-26T01:45:42;15.65;;;14.27;;
14738;SDS011;7461;52.440;13.540;2024-02-26T01:48:10;14.10;;;12.93;;
14738;SDS011;7461;52.440;13.540;2024-02-26T01:50:37;14.40;;;13.27;;
14738;SDS011;7461;52.440;13.540;2024-02-26T01:53:08;12.50;;;11.60;;
14738;SDS011;7461;52.440;13.540;2024-02-26T01:55:36;12.70;;;11.80;;
14738;SDS011;7461;52.440;13.540;2024-02-26T01:58:03;13.52;;;12.52;;
14738;SDS011;7461;52.440;13.540;2024-02-26T02:00:31;13.48;;;12.55;;
14738;SDS011;7461;52.440;13.540;2024-02-26T02:02:58;12.80;;;11.85;;
14738;SDS011;7461;52.440;13.540;2024-02-26T02:05:27;12.93;;;12.00;;
14738;SDS011;7461;52.440;13.540;2024-02-26T02:07:55;12.50;;;11.60;;
14738;SDS011;7461;52.440;13.540;2024-02-26T02:10:22;13.77;;;12.65;;
14738;SDS011;7461;52.440;13.540;2024-02-26T02:12:50;12.48;;;11.57;;
14738;SDS011;7461;52.440;13.540;2024-02-26T02:15:18;13.15;;;12.05;;
14738;SDS011;7461;52.440;13.540;2024-02-26T02:17:45;12.60;;;11.57;;
14738;SDS011;7461;52.440;13.540;2024-02-26T02:20:15;12.75;;;11.75;;
14738;SDS011;7461;52.440;13.540;2024-02-26T02:22:44;12.90;;;11.80;;
14738;SDS011;7461;52.440;13.540;2024-02-26T02:25:14;12.48;;;11.57;;
14738;SDS011;7461;52.440;13.540;2024-02-26T02:27:41;12.32;;;11.07;;
14738;SDS011;7461;52.440;13.540;2024-02-26T02:30:10;14.23;;;12.88;;
14738;SDS011;7461;52.440;13.540;2024-02-26T02:32:37;11.77;;;10.77;;
14738;SDS011;7461;52.440;13.540;2024-02-26T02:35:06;12.48;;;11.55;;
14738;SDS011;7461;52.440;13.540;2024-02-26T02:37:34;12.45;;;11.65;;
14738;SDS011;7461;52.440;13.540;2024-02-26T02:40:04;11.82;;;11.02;;
14738;SDS011;7461;52.440;13.540;2024-02-26T02:42:31;12.45;;;11.55;;
14738;SDS011;7461;52.440;13.540;2024-02-26T02:44:58;10.60;;;9.80;;
14738;SDS011;7461;52.440;13.540;2024-02-26T02:47:25;13.15;;;12.25;;
14738;SDS011;7461;52.440;13.540;2024-02-26T02:49:52;12.70;;;11.75;;
14738;SDS011;7461;52.440;13.540;2024-02-26T02:52:20;12.50;;;11.60;;
14738;SDS011;7461;52.440;13.540;2024-02-26T02:54:47;12.18;;;11.18;;
14738;SDS011;7461;52.440;13.540;2024-02-26T02:57:15;12.50;;;11.45;;
14738;SDS011;7461;52.440;13.540;2024-02-26T02:59:43;11.45;;;10.65;;
14738;SDS011;7461;52.440;13.540;2024-02-26T03:02:10;13.15;;;12.07;;
14738;SDS011;7461;52.440;13.540;2024-02-26T03:04:37;13.43;;;12.32;;
14738;SDS011;7461;52.440;13.540;2024-02-26T03:07:04;12.80;;;11.90;;
14738;SDS011;7461;52.440;13.540;2024-02-26T03:09:32;11.57;;;10.68;;
14738;SDS011;7461;52.440;13.540;2024-02-26T03:11:59;12.43;;;11.52;;
14738;SDS011;7461;52.440;13.540;2024-02-26T03:14:28;14.43;;;13.32;;
14738;SDS011;7461;52.440;13.540;2024-02-26T03:16:55;13.80;;;12.80;;
14738;SDS011;7461;52.440;13.540;2024-02-26T03:19:22;11.43;;;10.43;;
14738;SDS011;7461;52.440;13.540;2024-02-26T03:21:49;12.13;;;11.02;;
14738;SDS011;7461;52.440;13.540;2024-02-26T03:24:17;13.05;;;12.07;;
14738;SDS011;7461;52.440;13.540;2024-02-26T03:26:44;12.68;;;11.77;;
14738;SDS011;7461;52.440;13.540;2024-02-26T03:29:11;12.85;;;11.75;;
14738;SDS011;7461;52.440;13.540;2024-02-26T03:31:39;11.43;;;10.65;;
14738;SDS011;7461;52.440;13.540;2024-02-26T03:34:07;12.73;;;11.82;;
14738;SDS011;7461;52.440;13.540;2024-02-26T03:36:34;14.10;;;13.20;;
14738;SDS011;7461;52.440;13.540;2024-02-26T03:39:01;13.25;;;12.10;;
14738;SDS011;7461;52.440;13.540;2024-02-26T03:41:32;11.57;;;10.73;;
14738;SDS011;7461;52.440;13.540;2024-02-26T03:44:00;13.50;;;12.40;;
14738;SDS011;7461;52.440;13.540;2024-02-26T03:46:27;13.50;;;12.35;;
14738;SDS011;7461;52.440;13.540;2024-02-26T03:48:55;12.18;;;11.07;;
14738;SDS011;7461;52.440;13.540;2024-02-26T03:51:23;13.60;;;12.40;;
14738;SDS011;7461;52.440;13.540;2024-02-26T03:53:50;12.77;;;11.80;;
14738;SDS011;7461;52.440;13.540;2024-02-26T03:56:17;13.55;;;12.48;;
14738;SDS011;7461;52.440;13.540;2024-02-26T03:58:45;12.82;;;11.73;;
14738;SDS011;7461;52.440;13.540;2024-02-26T04:01:12;12.45;;;11.65;;
14738;SDS011;7461;52.440;13.540;2024-02-26T04:03:40;11.30;;;10.43;;
14738;SDS011;7461;52.440;13.540;2024-02-26T04:06:10;11.70;;;10.73;;
14738;SDS011;7461;52.440;13.540;2024-02-26T04:08:39;13.80;;;12.57;;
14738;SDS011;7461;52.440;13.540;2024-02-26T04:11:06;13.65;;;12.65;;
14738;SDS011;7461;52.440;13.540;2024-02-26T04:13:33;10.55;;;9.75;;
14738;SDS011;7461;52.440;13.540;2024-02-26T04:16:03;12.52;;;11.63;;
14738;SDS011;7461;52.440;13.540;2024-02-26T04:18:30;12.77;;;11.75;;
14738;SDS011;7461;52.440;13.540;2024-02-26T04:20:58;11.27;;;10.38;;
14738;SDS011;7461;52.440;13.540;2024-02-26T04:23:26;12.80;;;11.45;;
14738;SDS011;7461;52.440;13.540;2024-02-26T04:25:54;12.20;;;11.30;;
14738;SDS011;7461;52.440;13.540;2024-02-26T04:28:21;14.20;;;13.13;;
14738;SDS011;7461;52.440;13.540;2024-02-26T04:30:50;14.52;;;13.32;;
14738;SDS011;7461;52.440;13.540;2024-02-26T04:33:17;14.88;;;13.40;;
14738;SDS011;7461;52.440;13.540;2024-02-26T04:35:45;12.05;;;11.13;;
14738;SDS011;7461;52.440;13.540;2024-02-26T04:38:12;12.20;;;11.18;;
14738;SDS011;7461;52.440;13.540;2024-02-26T04:40:40;13.43;;;12.27;;
14738;SDS011;7461;52.440;13.540;2024-02-26T04:43:08;14.05;;;12.77;;
14738;SDS011;7461;52.440;13.540;2024-02-26T04:45:35;12.23;;;11.38;;
14738;SDS011;7461;52.440;13.540;2024-02-26T04:48:02;12.35;;;11.45;;
14738;SDS011;7461;52.440;13.540;2024-02-26T04:50:30;13.10;;;12.25;;
14738;SDS011;7461;52.440;13.540;2024-02-26T04:52:57;12.18;;;11.38;;
14738;SDS011;7461;52.440;13.540;2024-02-26T04:55:24;14.25;;;13.10;;
14738;SDS011;7461;52.440;13.540;2024-02-26T04:57:53;13.65;;;12.85;;
14738;SDS011;7461;52.440;13.540;2024-02-26T05:00:20;14.15;;;13.10;;
14738;SDS011;7461;52.440;13.540;2024-02-26T05:02:47;14.07;;;12.93;;
14738;SDS011;7461;52.440;13.540;2024-02-26T05:05:14;13.40;;;12.32;;
14738;SDS011;7461;52.440;13.540;2024-02-26T05:07:42;12.38;;;11.38;;
14738;SDS011;7461;52.440;13.540;2024-02-26T05:10:09;13.02;;;12.02;;
14738;SDS011;7461;52.440;13.540;2024-02-26T05:12:37;13.85;;;12.88;;
14738;SDS011;7461;52.440;13.540;2024-02-26T05:15:07;14.20;;;13.20;;
14738;SDS011;7461;52.440;13.540;2024-02-26T05:17:34;14.52;;;13.43;;
14738;SDS011;7461;52.440;13.540;2024-02-26T05:20:02;13.90;;;13.05;;
14738;SDS011;7461;52.440;13.540;2024-02-26T05:22:33;14.60;;;13.43;;
14738;SDS011;7461;52.440;13.540;2024-02-26T05:25:00;16.73;;;15.43;;
14738;SDS011;7461;52.440;13.540;2024-02-26T05:27:28;14.43;;;13.43;;
14738;SDS011;7461;52.440;13.540;2024-02-26T05:29:55;14.63;;;13.52;;
14738;SDS011;7461;52.440;13.540;2024-02-26T05:32:24;14.90;;;13.88;;
14738;SDS011;7461;52.440;13.540;2024-02-26T05:34:51;17.00;;;15.70;;
14738;SDS011;7461;52.440;13.540;2024-02-26T05:37:18;17.15;;;15.93;;
14738;SDS011;7461;52.440;13.540;2024-02-26T05:39:45;16.98;;;15.63;;
14738;SDS011;7461;52.440;13.540;2024-02-26T05:42:13;16.50;;;15.23;;
14738;SDS011;7461;52.440;13.540;2024-02-26T05:44:40;16.17;;;15.07;;
14738;SDS011;7461;52.440;13.540;2024-02-26T05:47:07;15.25;;;14.02;;
14738;SDS011;7461;52.440;13.540;2024-02-26T05:49:36;16.02;;;14.52;;
14738;SDS011;7461;52.440;13.540;2024-02-26T05:52:03;17.35;;;16.13;;
14738;SDS011;7461;52.440;13.540;2024-02-26T05:54:30;15.07;;;13.95;;
14738;SDS011;7461;52.440;13.540;2024-02-26T05:56:57;17.08;;;15.50;;
14738;SDS011;7461;52.440;13.540;2024-02-26T05:59:25;16.50;;;15.18;;
14738;SDS011;7461;52.440;13.540;2024-02-26T06:01:52;17.10;;;15.90;;
14738;SDS011;7461;52.440;13.540;2024-02-26T06:04:19;15.90;;;14.77;;
14738;SDS011;7461;52.440;13.540;2024-02-26T06:06:48;17.38;;;15.98;;
14738;SDS011;7461;52.440;13.540;2024-02-26T06:09:15;16.30;;;15.20;;
14738;SDS011;7461;52.440;13.540;2024-02-26T06:11:42;17.13;;;15.82;;
14738;SDS011;7461;52.440;13.540;2024-02-26T06:14:10;17.35;;;15.77;;
14738;SDS011;7461;52.440;13.540;2024-02-26T06:16:39;19.35;;;17.60;;
14738;SDS011;7461;52.440;13.540;2024-02-26T06:19:06;20.20;;;18.25;;
14738;SDS011;7461;52.440;13.540;2024-02-26T06:21:33;18.77;;;17.17;;
14738;SDS011;7461;52.440;13.540;2024-02-26T06:24:02;17.88;;;16.65;;
14738;SDS011;7461;52.440;13.540;2024-02-26T06:26:29;20.67;;;19.08;;
14738;SDS011;7461;52.440;13.540;2024-02-26T06:28:58;18.98;;;17.25;;
14738;SDS011;7461;52.440;13.540;2024-02-26T06:31:25;20.80;;;19.08;;
14738;SDS011;7461;52.440;13.540;2024-02-26T06:33:54;19.63;;;18.02;;
14738;SDS011;7461;52.440;13.540;2024-02-26T06:36:21;18.02;;;16.77;;
14738;SDS011;7461;52.440;13.540;2024-02-26T06:38:49;20.80;;;19.00;;
14738;SDS011;7461;52.440;13.540;2024-02-26T06:41:18;22.05;;;19.98;;
14738;SDS011;7461;52.440;13.540;2024-02-26T06:43:45;22.13;;;20.33;;
14738;SDS011;7461;52.440;13.540;2024-02-26T06:46:15;23.88;;;21.98;;
14738;SDS011;7461;52.440;13.540;2024-02-26T06:48:42;21.73;;;19.60;;
14738;SDS011;7461;52.440;13.540;2024-02-26T06:51:10;22.63;;;20.83;;
14738;SDS011;7461;52.440;13.540;2024-02-26T06:53:37;22.70;;;20.90;;
14738;SDS011;7461;52.440;13.540;2024-02-26T06:56:04;23.30;;;21.45;;
14738;SDS011;7461;52.440;13.540;2024-02-26T06:58:33;22.27;;;20.65;;
14738;SDS011;7461;52.440;13.540;2024-02-26T07:01:00;24.75;;;22.95;;
14738;SDS011;7461;52.440;13.540;2024-02-26T07:03:27;25.40;;;23.20;;
14738;SDS011;7461;52.440;13.540;2024-02-26T07:05:55;24.75;;;22.65;;
14738;SDS011;7461;52.440;13.540;2024-02-26T07:08:23;26.38;;;24.15;;
14738;SDS011;7461;52.440;13.540;2024-02-26T07:10:50;28.00;;;25.88;;
14738;SDS011;7461;52.440;13.540;2024-02-26T07:13:17;27.15;;;25.05;;
14738;SDS011;7461;52.440;13.540;2024-02-26T07:15:46;27.60;;;25.38;;
14738;SDS011;7461;52.440;13.540;2024-02-26T07:18:13;30.27;;;27.88;;
14738;SDS011;7461;52.440;13.540;2024-02-26T07:20:40;28.13;;;26.05;;
14738;SDS011;7461;52.440;13.540;2024-02-26T07:23:07;28.77;;;26.20;;
14738;SDS011;7461;52.440;13.540;2024-02-26T07:25:34;28.33;;;25.83;;
14738;SDS011;7461;52.440;13.540;2024-02-26T07:28:02;28.15;;;25.83;;
14738;SDS011;7461;52.440;13.540;2024-02-26T07:30:29;32.53;;;29.83;;
14738;SDS011;7461;52.440;13.540;2024-02-26T07:32:58;31.50;;;29.02;;
14738;SDS011;7461;52.440;13.540;2024-02-26T07:35:25;30.42;;;27.73;;
14738;SDS011;7461;52.440;13.540;2024-02-26T07:37:53;32.97;;;30.38;;
14738;SDS011;7461;52.440;13.540;2024-02-26T07:40:20;31.45;;;28.90;;
14738;SDS011;7461;52.440;13.540;2024-02-26T07:42:47;30.85;;;28.50;;
14738;SDS011;7461;52.440;13.540;2024-02-26T07:45:14;34.63;;;31.77;;
14738;SDS011;7461;52.440;13.540;2024-02-26T07:47:44;33.53;;;30.63;;
14738;SDS011;7461;52.440;13.540;2024-02-26T07:50:13;32.65;;;29.80;;
14738;SDS011;7461;52.440;13.540;2024-02-26T07:52:40;36.20;;;32.95;;
14738;SDS011;7461;52.440;13.540;2024-02-26T07:55:08;35.15;;;32.17;;
14738;SDS011;7461;52.440;13.540;2024-02-26T07:57:35;32.10;;;29.38;;
14738;SDS011;7461;52.440;13.540;2024-02-26T08:00:03;35.38;;;32.28;;
14738;SDS011;7461;52.440;13.540;2024-02-26T08:02:32;35.05;;;32.05;;
14738;SDS011;7461;52.440;13.540;2024-02-26T08:05:00;34.70;;;31.73;;
14738;SDS011;7461;52.440;13.540;2024-02-26T08:07:28;35.72;;;32.65;;
14738;SDS011;7461;52.440;13.540;2024-02-26T08:09:55;36.47;;;33.53;;
14738;SDS011;7461;52.440;13.540;2024-02-26T08:12:23;37.28;;;33.88;;
14738;SDS011;7461;52.440;13.540;2024-02-26T08:14:50;33.92;;;31.20;;
14738;SDS011;7461;52.440;13.540;2024-02-26T08:17:18;33.63;;;31.13;;
14738;SDS011;7461;52.440;13.540;2024-02-26T08:19:45;36.45;;;33.50;;
14738;SDS011;7461;52.440;13.540;2024-02-26T08:22:12;33.65;;;31.20;;
14738;SDS011;7461;52.440;13.540;2024-02-26T08:24:42;36.80;;;33.25;;
14738;SDS011;7461;52.440;13.540;2024-02-26T08:27:09;34.97;;;32.13;;
14738;SDS011;7461;52.440;13.540;2024-02-26T08:29:37;31.98;;;29.38;;
14738;SDS011;7461;52.440;13.540;2024-02-26T08:32:04;40.13;;;36.83;;
14738;SDS011;7461;52.440;13.540;2024-02-26T08:34:32;38.83;;;35.20;;
14738;SDS011;7461;52.440;13.540;2024-02-26T08:36:59;36.30;;;33.50;;
14738;SDS011;7461;52.440;13.540;2024-02-26T08:39:26;38.28;;;35.17;;
14738;SDS011;7461;52.440;13.540;2024-02-26T08:41:55;36.28;;;33.08;;
14738;SDS011;7461;52.440;13.540;2024-02-26T08:44:22;39.75;;;36.47;;
14738;SDS011;7461;52.440;13.540;2024-02-26T08:46:50;38.17;;;35.30;;
14738;SDS011;7461;52.440;13.540;2024-02-26T08:49:17;37.33;;;33.97;;
14738;SDS011;7461;52.440;13.540;2024-02-26T08:51:45;39.60;;;36.33;;
14738;SDS011;7461;52.440;13.540;2024-02-26T08:54:12;39.22;;;36.03;;
14738;SDS011;7461;52.440;13.540;2024-02-26T08:56:39;38.75;;;35.75;;
14738;SDS011;7461;52.440;13.540;2024-02-26T08:59:08;36.30;;;33.28;;
14738;SDS011;7461;52.440;13.540;2024-02-26T09:01:35;38.35;;;35.05;;
14738;SDS011;7461;52.440;13.540;2024-02-26T09:04:03;37.65;;;34.30;;
14738;SDS011;7461;52.440;13.540;2024-02-26T09:06:30;34.50;;;31.52;;
14738;SDS011;7461;52.440;13.540;2024-02-26T09:08:57;37.58;;;34.53;;
14738;SDS011;7461;52.440;13.540;2024-02-26T09:11:24;37.35;;;34.47;;
14738;SDS011;7461;52.440;13.540;2024-02-26T09:13:52;34.65;;;31.73;;
14738;SDS011;7461;52.440;13.540;2024-02-26T09:16:20;36.45;;;33.50;;
14738;SDS011;7461;52.440;13.540;2024-02-26T09:18:47;34.33;;;31.55;;
14738;SDS011;7461;52.440;13.540;2024-02-26T09:21:15;39.35;;;36.03;;
14738;SDS011;7461;52.440;13.540;2024-02-26T09:23:48;35.90;;;32.90;;
14738;SDS011;7461;52.440;13.540;2024-02-26T09:26:15;34.65;;;31.83;;
14738;SDS011;7461;52.440;13.540;2024-02-26T09:28:42;33.63;;;30.65;;
14738;SDS011;7461;52.440;13.540;2024-02-26T09:31:09;32.60;;;29.83;;
14738;SDS011;7461;52.440;13.540;2024-02-26T09:33:38;33.92;;;31.00;;
14738;SDS011;7461;52.440;13.540;2024-02-26T09:36:05;33.53;;;30.67;;
14738;SDS011;7461;52.440;13.540;2024-02-26T09:38:34;32.78;;;30.17;;
14738;SDS011;7461;52.440;13.540;2024-02-26T09:41:03;32.72;;;29.92;;
14738;SDS011;7461;52.440;13.540;2024-02-26T09:43:34;36.55;;;31.83;;
14738;SDS011;7461;52.440;13.540;2024-02-26T09:46:03;32.70;;;29.88;;
14738;SDS011;7461;52.440;13.540;2024-02-26T09:48:29;28.75;;;26.40;;
14738;SDS011;7461;52.440;13.540;2024-02-26T09:50:58;31.10;;;28.23;;
14738;SDS011;7461;52.440;13.540;2024-02-26T09:53:26;31.15;;;28.45;;
14738;SDS011;7461;52.440;13.540;2024-02-26T09:55:56;30.90;;;28.58;;
14738;SDS011;7461;52.440;13.540;2024-02-26T09:58:24;31.20;;;28.58;;
14738;SDS011;7461;52.440;13.540;2024-02-26T10:00:53;30.02;;;27.67;;
14738;SDS011;7461;52.440;13.540;2024-02-26T10:03:24;31.50;;;28.80;;
14738;SDS011;7461;52.440;13.540;2024-02-26T10:05:52;31.00;;;28.67;;
14738;SDS011;7461;52.440;13.540;2024-02-26T10:08:22;30.25;;;27.67;;
14738;SDS011;7461;52.440;13.540;2024-02-26T10:10:49;27.52;;;25.40;;
14738;SDS011;7461;52.440;13.540;2024-02-26T10:13:17;27.45;;;25.20;;
14738;SDS011;7461;52.440;13.540;2024-02-26T10:15:45;26.25;;;24.15;;
14738;SDS011;7461;52.440;13.540;2024-02-26T10:18:12;26.80;;;24.48;;
14738;SDS011;7461;52.440;13.540;2024-02-26T10:20:40;28.98;;;26.33;;
14738;SDS011;7461;52.440;13.540;2024-02-26T10:23:07;26.77;;;24.42;;
14738;SDS011;7461;52.440;13.540;2024-02-26T10:25:35;23.52;;;21.52;;
14738;SDS011;7461;52.440;13.540;2024-02-26T10:28:03;23.13;;;21.23;;
14738;SDS011;7461;52.440;13.540;2024-02-26T10:30:30;23.95;;;21.95;;
14738;SDS011;7461;52.440;13.540;2024-02-26T10:32:57;22.23;;;20.30;;
14738;SDS011;7461;52.440;13.540;2024-02-26T10:35:27;23.13;;;21.52;;
14738;SDS011;7461;52.440;13.540;2024-02-26T10:37:56;21.05;;;19.42;;
14738;SDS011;7461;52.440;13.540;2024-02-26T10:40:23;21.45;;;19.75;;
14738;SDS011;7461;52.440;13.540;2024-02-26T10:42:51;21.55;;;19.88;;
14738;SDS011;7461;52.440;13.540;2024-02-26T10:45:19;18.85;;;17.25;;
14738;SDS011;7461;52.440;13.540;2024-02-26T10:47:46;19.95;;;18.35;;
14738;SDS011;7461;52.440;13.540;2024-02-26T10:50:13;20.48;;;18.77;;
14738;SDS011;7461;52.440;13.540;2024-02-26T10:52:42;17.30;;;16.00;;
14738;SDS011;7461;52.440;13.540;2024-02-26T10:55:12;19.60;;;17.90;;
14738;SDS011;7461;52.440;13.540;2024-02-26T10:57:40;19.25;;;17.70;;
14738;SDS011;7461;52.440;13.540;2024-02-26T11:00:13;19.20;;;17.83;;
14738;SDS011;7461;52.440;13.540;2024-02-26T11:02:41;18.50;;;17.08;;
14738;SDS011;7461;52.440;13.540;2024-02-26T11:05:08;17.42;;;16.30;;
14738;SDS011;7461;52.440;13.540;2024-02-26T11:07:36;17.17;;;15.88;;
14738;SDS011;7461;52.440;13.540;2024-02-26T11:10:03;19.23;;;17.63;;
14738;SDS011;7461;52.440;13.540;2024-02-26T11:12:31;20.15;;;18.25;;
14738;SDS011;7461;52.440;13.540;2024-02-26T11:15:00;15.18;;;14.07;;
14738;SDS011;7461;52.440;13.540;2024-02-26T11:17:29;16.10;;;14.80;;
14738;SDS011;7461;52.440;13.540;2024-02-26T11:19:57;15.00;;;13.90;;
14738;SDS011;7461;52.440;13.540;2024-02-26T11:22:25;17.02;;;15.50;;
14738;SDS011;7461;52.440;13.540;2024-02-26T11:24:52;15.18;;;13.68;;
14738;SDS011;7461;52.440;13.540;2024-02-26T11:27:23;15.00;;;13.88;;
14738;SDS011;7461;52.440;13.540;2024-02-26T11:29:54;14.43;;;13.32;;
14738;SDS011;7461;52.440;13.540;2024-02-26T11:32:22;13.80;;;12.70;;
14738;SDS011;7461;52.440;13.540;2024-02-26T11:34:51;11.95;;;10.95;;
14738;SDS011;7461;52.440;13.540;2024-02-26T11:37:20;10.75;;;9.95;;
14738;SDS011;7461;52.440;13.540;2024-02-26T11:39:47;10.73;;;10.02;;
14738;SDS011;7461;52.440;13.540;2024-02-26T11:42:15;13.88;;;12.80;;
14738;SDS011;7461;52.440;13.540;2024-02-26T11:44:43;12.75;;;11.02;;
14738;SDS011;7461;52.440;13.540;2024-02-26T11:47:11;13.27;;;12.27;;
14738;SDS011;7461;52.440;13.540;2024-02-26T11:49:38;12.45;;;11.50;;
14738;SDS011;7461;52.440;13.540;2024-02-26T11:52:07;12.55;;;11.48;;
14738;SDS011;7461;52.440;13.540;2024-02-26T11:54:38;14.43;;;13.30;;
14738;SDS011;7461;52.440;13.540;2024-02-26T11:57:19;12.57;;;11.68;;
14738;SDS011;7461;52.440;13.540;2024-02-26T11:59:46;11.80;;;10.73;;
14738;SDS011;7461;52.440;13.540;2024-02-26T12:04:57;10.15;;;9.30;;
14738;SDS011;7461;52.440;13.540;2024-02-26T12:07:26;10.25;;;9.55;;
14738;SDS011;7461;52.440;13.540;2024-02-26T12:09:56;11.88;;;10.88;;
14738;SDS011;7461;52.440;13.540;2024-02-26T12:12:41;12.15;;;11.23;;
14738;SDS011;7461;52.440;13.540;2024-02-26T12:15:08;11.55;;;10.65;;
14738;SDS011;7461;52.440;13.540;2024-02-26T12:17:37;11.65;;;10.85;;
14738;SDS011;7461;52.440;13.540;2024-02-26T12:20:08;11.63;;;10.73;;
14738;SDS011;7461;52.440;13.540;2024-02-26T12:22:37;11.93;;;10.93;;
14738;SDS011;7461;52.440;13.540;2024-02-26T12:25:06;11.18;;;10.27;;
14738;SDS011;7461;52.440;13.540;2024-02-26T12:27:35;12.70;;;11.70;;
14738;SDS011;7461;52.440;13.540;2024-02-26T12:30:02;10.10;;;9.40;;
14738;SDS011;7461;52.440;13.540;2024-02-26T12:32:31;8.85;;;8.23;;
14738;SDS011;7461;52.440;13.540;2024-02-26T12:34:58;10.30;;;9.48;;
14738;SDS011;7461;52.440;13.540;2024-02-26T12:37:26;10.50;;;9.70;;
14738;SDS011;7461;52.440;13.540;2024-02-26T12:39:55;10.88;;;9.82;;
14738;SDS011;7461;52.440;13.540;2024-02-26T12:42:22;10.23;;;9.52;;
14738;SDS011;7461;52.440;13.540;2024-02-26T12:44:49;9.95;;;9.07;;
14738;SDS011;7461;52.440;13.540;2024-02-26T12:47:17;9.40;;;8.60;;
14738;SDS011;7461;52.440;13.540;2024-02-26T12:49:46;9.50;;;8.65;;
14738;SDS011;7461;52.440;13.540;2024-02-26T12:52:13;9.73;;;9.13;;
14738;SDS011;7461;52.440;13.540;2024-02-26T12:54:41;10.60;;;9.50;;
14738;SDS011;7461;52.440;13.540;2024-02-26T12:57:10;10.25;;;9.30;;
14738;SDS011;7461;52.440;13.540;2024-02-26T12:59:38;9.30;;;8.63;;
14738;SDS011;7461;52.440;13.540;2024-02-26T13:02:05;9.55;;;8.90;;
14738;SDS011;7461;52.440;13.540;2024-02-26T13:04:32;10.90;;;10.00;;
14738;SDS011;7461;52.440;13.540;2024-02-26T13:07:02;10.93;;;9.93;;
14738;SDS011;7461;52.440;13.540;2024-02-26T13:09:32;11.32;;;10.48;;
14738;SDS011;7461;52.440;13.540;2024-02-26T13:11:59;11.50;;;10.50;;
14738;SDS011;7461;52.440;13.540;2024-02-26T13:14:28;11.23;;;10.27;;
14738;SDS011;7461;52.440;13.540;2024-02-26T13:16:57;12.05;;;11.07;;
14738;SDS011;7461;52.440;13.540;2024-02-26T13:19:24;11.82;;;10.93;;
14738;SDS011;7461;52.440;13.540;2024-02-26T13:21:52;11.68;;;10.77;;
14738;SDS011;7461;52.440;13.540;2024-02-26T13:24:20;10.95;;;10.25;;
14738;SDS011;7461;52.440;13.540;2024-02-26T13:26:53;11.68;;;10.55;;
14738;SDS011;7461;52.440;13.540;2024-02-26T13:29:21;9.55;;;8.77;;
14738;SDS011;7461;52.440;13.540;2024-02-26T13:31:54;11.50;;;10.63;;
14738;SDS011;7461;52.440;13.540;2024-02-26T13:34:23;10.20;;;9.27;;
14738;SDS011;7461;52.440;13.540;2024-02-26T13:36:51;10.43;;;9.57;;
14738;SDS011;7461;52.440;13.540;2024-02-26T13:39:21;10.85;;;10.05;;
14738;SDS011;7461;52.440;13.540;2024-02-26T13:41:50;12.60;;;11.65;;
14738;SDS011;7461;52.440;13.540;2024-02-26T13:44:17;10.70;;;9.73;;
14738;SDS011;7461;52.440;13.540;2024-02-26T13:46:44;11.52;;;10.63;;
14738;SDS011;7461;52.440;13.540;2024-02-26T13:49:12;11.18;;;10.32;;
14738;SDS011;7461;52.440;13.540;2024-02-26T13:51:40;10.77;;;9.98;;
14738;SDS011;7461;52.440;13.540;2024-02-26T13:54:07;11.98;;;10.88;;
14738;SDS011;7461;52.440;13.540;2024-02-26T13:56:35;11.45;;;10.45;;
14738;SDS011;7461;52.440;13.540;2024-02-26T13:59:03;12.05;;;11.05;;
14738;SDS011;7461;52.440;13.540;2024-02-26T14:01:30;11.43;;;10.48;;
14738;SDS011;7461;52.440;13.540;2024-02-26T14:03:58;11.35;;;10.48;;
14738;SDS011;7461;52.440;13.540;2024-02-26T14:06:28;13.60;;;12.50;;
14738;SDS011;7461;52.440;13.540;2024-02-26T14:08:57;11.40;;;10.30;;
14738;SDS011;7461;52.440;13.540;2024-02-26T14:11:24;13.20;;;12.18;;
14738;SDS011;7461;52.440;13.540;2024-02-26T14:13:54;12.75;;;11.80;;
14738;SDS011;7461;52.440;13.540;2024-02-26T14:16:21;13.93;;;12.90;;
14738;SDS011;7461;52.440;13.540;2024-02-26T14:18:48;14.18;;;13.07;;
14738;SDS011;7461;52.440;13.540;2024-02-26T14:21:15;14.60;;;12.20;;
14738;SDS011;7461;52.440;13.540;2024-02-26T14:23:44;13.65;;;12.55;;
14738;SDS011;7461;52.440;13.540;2024-02-26T14:26:11;12.90;;;11.90;;
14738;SDS011;7461;52.440;13.540;2024-02-26T14:28:38;13.27;;;12.18;;
14738;SDS011;7461;52.440;13.540;2024-02-26T14:31:06;14.00;;;12.60;;